Time;durP1;ratioP1;P1;durP2;ratioP2;P2;SDS_P1;SDS_P2;PMS_P1;PMS_P2;Temp;Humidity;BMP_temperature;BMP_pressure;BME280_temperature;BME280_humidity;BME280_pressure;Samples;Min_cycle;Max_cycle;Signal;HPM_P1;HPM_P2
2022/11/21 00:02:03;;;;;;;0.80;0.70;;;6.00;99.90;;;;;;5041653;28;20636;-85
2022/11/21 00:04:32;;;;;;;0.60;0.60;;;6.10;99.90;;;;;;5040605;28;20633;-85
2022/11/21 00:07:00;;;;;;;2.13;0.87;;;5.90;99.90;;;;;;5048799;28;20630;-85
2022/11/21 00:09:27;;;;;;;1.67;0.70;;;6.10;99.90;;;;;;5036931;28;20646;-85
2022/11/21 00:11:55;;;;;;;1.03;0.60;;;6.00;99.90;;;;;;5046056;28;20672;-85
2022/11/21 00:14:21;;;;;;;1.73;0.60;;;5.70;99.90;;;;;;5045534;28;20777;-85
2022/11/21 00:16:48;;;;;;;0.57;0.57;;;5.80;99.90;;;;;;5045056;28;20638;-85
2022/11/21 00:19:15;;;;;;;1.63;0.70;;;5.90;99.90;;;;;;5047851;28;20658;-85
2022/11/21 00:21:42;;;;;;;0.50;0.40;;;5.50;99.90;;;;;;5048808;28;20633;-85
2022/11/21 00:24:10;;;;;;;0.70;0.57;;;5.80;99.90;;;;;;5047743;28;20669;-85
2022/11/21 00:26:38;;;;;;;1.40;0.60;;;5.90;99.90;;;;;;5049633;28;20625;-85
2022/11/21 00:29:06;;;;;;;0.70;0.50;;;5.90;99.90;;;;;;5040934;28;20699;-84
2022/11/21 00:31:32;;;;;;;0.43;0.43;;;5.80;99.90;;;;;;5048660;28;20633;-86
2022/11/21 00:33:59;;;;;;;1.07;0.70;;;6.10;99.90;;;;;;5047295;28;21000;-86
2022/11/21 00:36:26;;;;;;;0.80;0.53;;;5.90;99.90;;;;;;5044947;28;20637;-84
2022/11/21 00:38:53;;;;;;;0.43;0.40;;;6.00;99.90;;;;;;5048769;28;21002;-85
2022/11/21 00:41:20;;;;;;;0.40;0.30;;;6.00;99.90;;;;;;5043007;28;20795;-85
2022/11/21 00:43:46;;;;;;;1.13;0.40;;;6.00;99.90;;;;;;5039167;28;20754;-85
2022/11/21 00:46:14;;;;;;;0.63;0.30;;;5.80;99.90;;;;;;5047539;28;20629;-85
2022/11/21 00:48:41;;;;;;;0.90;0.30;;;5.80;99.90;;;;;;5034486;28;20655;-86
2022/11/21 00:51:08;;;;;;;0.40;0.30;;;5.60;99.90;;;;;;5040143;28;20630;-86
2022/11/21 00:53:34;;;;;;;0.50;0.40;;;5.90;99.90;;;;;;5048669;28;20622;-85
2022/11/21 00:56:01;;;;;;;0.83;0.40;;;5.60;99.90;;;;;;5047961;28;20641;-85
2022/11/21 00:58:28;;;;;;;0.70;0.50;;;5.60;99.90;;;;;;5048178;28;21188;-85
2022/11/21 01:01:03;;;;;;;0.80;0.57;;;5.60;99.90;;;;;;5043552;28;21207;-86
2022/11/21 01:03:32;;;;;;;0.50;0.40;;;5.70;99.90;;;;;;5041762;28;20661;-85
2022/11/21 01:06:01;;;;;;;1.33;0.47;;;5.60;99.90;;;;;;5041068;28;20644;-86
2022/11/21 01:08:28;;;;;;;0.93;0.50;;;5.50;99.90;;;;;;5048769;28;20630;-85
2022/11/21 01:10:55;;;;;;;1.20;0.40;;;5.50;99.90;;;;;;5047319;28;20632;-85
2022/11/21 01:13:22;;;;;;;1.80;0.50;;;5.60;99.90;;;;;;5043643;28;20633;-86
2022/11/21 01:15:49;;;;;;;0.73;0.37;;;5.30;99.90;;;;;;5047496;28;20733;-86
2022/11/21 01:18:16;;;;;;;1.00;0.70;;;5.50;99.90;;;;;;5046482;28;20633;-86
2022/11/21 01:20:44;;;;;;;1.37;0.40;;;5.60;99.90;;;;;;5036839;28;20689;-85
2022/11/21 01:23:11;;;;;;;0.50;0.50;;;5.50;99.90;;;;;;5046510;28;20678;-86
2022/11/21 01:25:38;;;;;;;1.83;0.70;;;5.60;99.90;;;;;;5046076;28;20625;-85
2022/11/21 01:28:05;;;;;;;3.10;0.67;;;5.70;99.90;;;;;;5040556;28;20630;-86
2022/11/21 01:30:32;;;;;;;0.97;0.87;;;5.60;99.90;;;;;;5048057;28;20625;-86
2022/11/21 01:32:59;;;;;;;2.03;0.60;;;5.70;99.90;;;;;;5047055;28;20626;-86
2022/11/21 01:35:26;;;;;;;0.80;0.60;;;5.70;99.90;;;;;;5047645;28;20630;-86
2022/11/21 01:37:54;;;;;;;1.80;1.13;;;5.70;99.90;;;;;;5046078;28;20660;-85
2022/11/21 01:40:21;;;;;;;2.00;0.70;;;5.20;99.90;;;;;;5047581;28;20619;-86
2022/11/21 01:42:55;;;;;;;2.33;0.90;;;5.90;99.90;;;;;;5047408;28;20666;-86
2022/11/21 01:45:57;;;;;;;1.50;0.60;;;5.80;99.90;;;;;;5040137;28;20630;-86
2022/11/21 01:48:29;;;;;;;1.70;0.80;;;5.60;99.90;;;;;;5047683;28;20633;-86
2022/11/21 01:51:01;;;;;;;3.47;0.73;;;5.70;99.90;;;;;;5045351;28;20660;-86
2022/11/21 01:53:29;;;;;;;1.93;0.63;;;5.00;99.90;;;;;;5047486;28;20625;-86
2022/11/21 01:55:56;;;;;;;1.23;0.70;;;5.80;99.90;;;;;;5039757;28;21211;-86
2022/11/21 01:58:23;;;;;;;1.10;0.90;;;5.40;99.90;;;;;;5047534;28;20630;-86
2022/11/21 02:00:50;;;;;;;1.50;0.63;;;5.70;99.90;;;;;;5047666;28;21036;-86
2022/11/21 02:03:21;;;;;;;0.80;0.67;;;5.50;99.90;;;;;;5046258;28;20661;-87
2022/11/21 02:05:48;;;;;;;1.43;0.70;;;5.50;99.90;;;;;;5037885;28;20627;-87
2022/11/21 02:08:19;;;;;;;0.97;0.70;;;5.50;99.90;;;;;;5037131;28;20637;-87
2022/11/21 02:10:54;;;;;;;2.50;0.90;;;5.50;99.90;;;;;;5044097;28;20654;-87
2022/11/21 02:13:24;;;;;;;3.83;0.87;;;5.50;99.90;;;;;;5047896;28;20666;-87
2022/11/21 02:15:50;;;;;;;2.70;0.90;;;5.10;99.90;;;;;;5047962;28;20732;-86
2022/11/21 02:18:17;;;;;;;2.77;0.70;;;5.10;99.90;;;;;;5047425;28;20633;-87
2022/11/21 02:20:51;;;;;;;2.10;0.80;;;5.20;99.90;;;;;;5048269;28;20653;-86
2022/11/21 02:23:27;;;;;;;0.97;0.67;;;5.10;99.90;;;;;;5047217;28;20662;-87
2022/11/21 02:25:55;;;;;;;0.87;0.40;;;5.40;99.90;;;;;;5044041;28;20621;-87
2022/11/21 02:28:24;;;;;;;2.60;0.90;;;5.30;99.90;;;;;;5047415;28;20645;-86
2022/11/21 02:30:51;;;;;;;0.90;0.60;;;5.40;99.90;;;;;;5046844;28;20660;-86
2022/11/21 02:33:18;;;;;;;2.10;0.70;;;5.30;99.90;;;;;;5041966;28;20618;-86
2022/11/21 02:35:45;;;;;;;0.90;0.40;;;5.40;99.90;;;;;;5051645;28;20628;-85
2022/11/21 02:38:18;;;;;;;4.10;0.63;;;5.10;99.90;;;;;;5050890;28;20638;-86
2022/11/21 02:40:52;;;;;;;0.80;0.80;;;5.60;99.90;;;;;;5051261;28;20649;-87
2022/11/21 02:43:24;;;;;;;0.87;0.60;;;5.00;99.90;;;;;;5047755;28;20654;-87
2022/11/21 02:45:51;;;;;;;0.57;0.57;;;5.50;99.90;;;;;;5043381;28;20614;-86
2022/11/21 02:48:18;;;;;;;2.00;1.03;;;5.10;99.90;;;;;;5049686;28;20622;-86
2022/11/21 02:50:46;;;;;;;2.17;0.97;;;5.50;99.90;;;;;;5050800;28;20657;-87
2022/11/21 02:53:14;;;;;;;0.93;0.80;;;5.60;99.90;;;;;;5049098;28;20626;-86
2022/11/21 02:55:42;;;;;;;2.50;1.03;;;5.00;99.90;;;;;;5053532;28;20637;-86
2022/11/21 02:58:09;;;;;;;2.10;0.70;;;5.00;99.90;;;;;;5050283;28;20672;-87
2022/11/21 03:00:39;;;;;;;2.53;1.07;;;5.50;99.90;;;;;;5052744;28;20628;-86
2022/11/21 03:03:06;;;;;;;1.07;0.67;;;5.40;99.90;;;;;;5042264;28;20662;-87
2022/11/21 03:05:33;;;;;;;0.70;0.63;;;5.30;99.90;;;;;;5045536;28;20629;-86
2022/11/21 03:07:59;;;;;;;1.57;0.70;;;5.30;99.90;;;;;;5049444;28;20626;-86
2022/11/21 03:10:27;;;;;;;1.57;0.70;;;5.60;99.90;;;;;;5049288;28;20629;-86
2022/11/21 03:12:59;;;;;;;2.03;1.00;;;5.30;99.90;;;;;;5048974;28;20621;-87
2022/11/21 03:15:27;;;;;;;1.73;0.80;;;5.40;99.90;;;;;;5042912;28;20658;-86
2022/11/21 03:17:55;;;;;;;0.70;0.53;;;5.30;99.90;;;;;;5038862;28;20672;-86
2022/11/21 03:20:22;;;;;;;1.10;0.80;;;4.80;99.90;;;;;;5042301;28;20629;-87
2022/11/21 03:22:49;;;;;;;1.83;0.73;;;5.30;99.90;;;;;;5041334;28;21016;-86
2022/11/21 03:25:16;;;;;;;0.70;0.57;;;5.20;99.90;;;;;;5050323;28;20625;-86
2022/11/21 03:27:43;;;;;;;1.17;0.57;;;5.30;99.90;;;;;;5050188;28;21117;-86
2022/11/21 03:30:11;;;;;;;5.70;1.30;;;5.20;99.90;;;;;;5047506;28;20645;-85
2022/11/21 03:32:39;;;;;;;1.13;0.50;;;5.50;99.90;;;;;;5044470;28;20676;-86
2022/11/21 03:35:08;;;;;;;1.63;0.70;;;5.00;99.90;;;;;;5046058;28;20621;-86
2022/11/21 03:37:35;;;;;;;1.53;0.60;;;5.30;99.90;;;;;;5043550;28;20625;-86
2022/11/21 03:40:02;;;;;;;1.23;1.13;;;5.20;99.90;;;;;;5048374;28;20636;-87
2022/11/21 03:42:28;;;;;;;1.40;0.50;;;5.20;99.90;;;;;;5037763;28;20656;-86
2022/11/21 03:44:55;;;;;;;0.50;0.30;;;5.40;99.90;;;;;;5046234;28;20662;-86
2022/11/21 03:47:23;;;;;;;1.07;0.73;;;5.40;99.90;;;;;;5047050;28;21658;-86
2022/11/21 03:49:50;;;;;;;0.57;0.40;;;5.70;99.90;;;;;;5042079;28;20626;-86
2022/11/21 03:52:18;;;;;;;0.70;0.40;;;5.40;99.90;;;;;;5050237;28;20661;-86
2022/11/21 03:54:45;;;;;;;1.63;0.70;;;5.50;99.90;;;;;;5042555;28;20645;-85
2022/11/21 03:57:12;;;;;;;1.23;0.77;;;5.40;99.90;;;;;;5050042;28;20636;-86
2022/11/21 03:59:38;;;;;;;1.80;0.50;;;5.30;99.90;;;;;;5050073;28;20636;-86
2022/11/21 04:02:05;;;;;;;1.70;0.50;;;5.50;99.90;;;;;;5049428;28;20625;-86
2022/11/21 04:04:32;;;;;;;1.70;0.90;;;5.60;99.90;;;;;;5043850;28;20674;-86
2022/11/21 04:06:59;;;;;;;1.43;0.90;;;5.70;99.90;;;;;;5069437;28;20624;-86
2022/11/21 04:09:27;;;;;;;0.90;0.80;;;5.80;99.90;;;;;;5057847;28;20621;-86
2022/11/21 04:11:54;;;;;;;1.03;0.77;;;5.60;99.90;;;;;;5046599;28;20639;-86
2022/11/21 04:14:20;;;;;;;1.00;0.80;;;5.60;99.90;;;;;;5049236;28;20673;-86
2022/11/21 04:16:48;;;;;;;3.70;1.30;;;5.90;99.90;;;;;;5049096;28;21178;-86
2022/11/21 04:19:15;;;;;;;0.50;0.50;;;5.30;99.90;;;;;;5051659;28;20633;-85
2022/11/21 04:21:42;;;;;;;1.47;0.80;;;5.60;99.90;;;;;;5046028;28;20619;-86
2022/11/21 04:24:09;;;;;;;1.67;0.70;;;5.30;99.90;;;;;;5040997;28;20680;-86
2022/11/21 04:26:37;;;;;;;0.60;0.50;;;5.80;99.90;;;;;;5049739;28;20622;-86
2022/11/21 04:29:04;;;;;;;0.97;0.73;;;5.70;99.90;;;;;;5048844;28;20663;-85
2022/11/21 04:31:31;;;;;;;1.40;0.60;;;5.40;99.90;;;;;;5048394;28;20636;-86
2022/11/21 04:34:01;;;;;;;1.87;0.57;;;5.80;99.90;;;;;;5039106;28;20658;-85
2022/11/21 04:36:28;;;;;;;1.23;0.63;;;5.80;99.90;;;;;;5038838;28;20623;-86
2022/11/21 04:38:55;;;;;;;1.13;0.47;;;5.60;99.90;;;;;;5046578;28;20654;-86
2022/11/21 04:41:21;;;;;;;0.70;0.50;;;5.80;99.90;;;;;;5040642;28;20625;-86
2022/11/21 04:43:50;;;;;;;1.47;1.33;;;5.70;99.90;;;;;;5040405;28;21073;-86
2022/11/21 04:46:16;;;;;;;1.37;0.67;;;5.80;99.90;;;;;;5047559;28;20976;-88
2022/11/21 04:48:43;;;;;;;1.10;0.67;;;5.90;99.90;;;;;;5043390;28;20645;-87
2022/11/21 04:51:10;;;;;;;2.40;0.77;;;6.00;99.90;;;;;;5046050;28;20622;-86
2022/11/21 04:53:37;;;;;;;0.97;0.87;;;5.80;99.90;;;;;;5048036;28;20618;-86
2022/11/21 04:56:05;;;;;;;1.60;0.60;;;5.80;99.90;;;;;;5046845;28;20621;-86
2022/11/21 04:58:32;;;;;;;1.03;0.80;;;5.80;99.90;;;;;;5048076;28;20733;-86
2022/11/21 05:01:06;;;;;;;1.10;0.57;;;5.80;99.90;;;;;;5039042;28;20627;-87
2022/11/21 05:03:32;;;;;;;2.00;0.73;;;6.00;99.90;;;;;;5041697;28;20631;-87
2022/11/21 05:06:00;;;;;;;0.90;0.80;;;5.80;99.90;;;;;;5040532;28;20645;-86
2022/11/21 05:08:27;;;;;;;2.27;1.00;;;5.80;99.90;;;;;;5047048;28;20662;-86
2022/11/21 05:13:39;;;;;;;1.00;0.40;;;5.80;99.90;;;;;;5046762;28;20659;-86
2022/11/21 05:16:07;;;;;;;1.00;0.70;;;5.50;99.90;;;;;;5039759;28;20636;-87
2022/11/21 05:18:34;;;;;;;2.23;0.80;;;6.00;99.90;;;;;;5047362;28;20624;-87
2022/11/21 05:21:01;;;;;;;0.83;0.50;;;5.60;99.90;;;;;;5047963;28;21309;-86
2022/11/21 05:23:28;;;;;;;1.40;0.60;;;5.70;99.90;;;;;;5043090;28;20627;-86
2022/11/21 05:25:55;;;;;;;1.80;0.80;;;5.70;99.90;;;;;;5045620;28;20630;-85
2022/11/21 05:28:21;;;;;;;2.90;1.00;;;5.40;99.90;;;;;;5048969;28;20686;-86
2022/11/21 05:30:48;;;;;;;2.20;1.03;;;5.10;99.90;;;;;;5048350;28;20672;-86
2022/11/21 05:33:16;;;;;;;2.03;0.90;;;5.10;99.90;;;;;;5051833;28;20645;-86
2022/11/21 05:35:44;;;;;;;1.00;0.70;;;5.70;99.90;;;;;;5044377;28;20635;-86
2022/11/21 05:38:12;;;;;;;0.57;0.53;;;5.40;99.90;;;;;;5047762;28;20618;-85
2022/11/21 05:40:39;;;;;;;1.23;0.87;;;5.60;99.90;;;;;;5046911;28;20645;-85
2022/11/21 05:45:50;;;;;;;2.43;0.57;;;5.40;99.90;;;;;;5043869;28;20656;-84
2022/11/21 05:48:19;;;;;;;1.30;0.80;;;5.30;99.90;;;;;;5044771;28;20637;-86
2022/11/21 05:50:48;;;;;;;0.70;0.67;;;5.40;99.90;;;;;;5046272;28;20653;-85
2022/11/21 05:53:16;;;;;;;1.33;0.77;;;5.60;99.90;;;;;;5045459;28;21224;-86
2022/11/21 05:55:43;;;;;;;0.90;0.80;;;5.40;99.90;;;;;;5040454;28;20618;-86
2022/11/21 05:58:10;;;;;;;0.93;0.87;;;5.30;99.90;;;;;;5046007;28;20645;-86
2022/11/21 06:00:38;;;;;;;1.20;1.10;;;5.30;99.90;;;;;;5046877;28;20649;-86
2022/11/21 06:05:50;;;;;;;1.43;1.30;;;5.70;99.90;;;;;;5041467;28;20672;-85
2022/11/21 06:08:17;;;;;;;3.03;1.80;;;5.50;99.90;;;;;;5045554;28;20630;-85
2022/11/21 06:10:44;;;;;;;2.30;1.90;;;5.40;99.90;;;;;;5046043;28;20664;-85
2022/11/21 06:13:21;;;;;;;5.60;2.00;;;5.20;99.90;;;;;;5043391;28;20661;-85
2022/11/21 06:15:50;;;;;;;1.90;1.37;;;5.60;99.90;;;;;;5046046;28;20629;-85
2022/11/21 06:18:17;;;;;;;2.90;1.50;;;5.00;99.90;;;;;;5045571;28;20630;-85
2022/11/21 06:20:45;;;;;;;3.00;2.00;;;5.50;99.90;;;;;;5046195;28;20648;-86
2022/11/21 06:23:13;;;;;;;2.27;1.60;;;5.60;99.90;;;;;;5035531;28;20697;-86
2022/11/21 06:25:40;;;;;;;3.23;1.90;;;5.70;99.90;;;;;;5044856;28;20692;-86
2022/11/21 06:28:10;;;;;;;2.43;1.90;;;5.60;99.90;;;;;;5045800;28;20660;-85
2022/11/21 06:30:37;;;;;;;1.47;1.37;;;5.60;99.90;;;;;;5044933;28;20661;-86
2022/11/21 06:33:05;;;;;;;1.80;1.30;;;5.10;99.90;;;;;;5043659;28;20982;-86
2022/11/21 06:35:33;;;;;;;1.67;1.57;;;5.80;99.90;;;;;;5049574;28;20716;-86
2022/11/21 06:38:00;;;;;;;2.30;1.73;;;5.80;99.90;;;;;;5046427;28;21223;-86
2022/11/21 06:40:28;;;;;;;1.17;1.03;;;5.70;99.90;;;;;;5045426;28;20660;-86
2022/11/21 06:42:56;;;;;;;3.13;1.13;;;5.50;99.90;;;;;;5044700;28;20626;-86
2022/11/21 06:45:22;;;;;;;1.67;0.80;;;5.60;99.90;;;;;;5041335;28;20666;-85
2022/11/21 06:47:51;;;;;;;0.80;0.70;;;5.70;99.90;;;;;;5036799;28;20633;-85
2022/11/21 06:50:18;;;;;;;1.90;0.90;;;5.60;99.90;;;;;;5044404;28;20753;-86
2022/11/21 06:52:45;;;;;;;1.70;0.80;;;5.60;99.90;;;;;;5045516;28;20621;-86
2022/11/21 06:55:13;;;;;;;0.80;0.80;;;5.30;99.90;;;;;;5036033;28;20627;-86
2022/11/21 06:57:41;;;;;;;1.50;0.97;;;5.30;99.90;;;;;;5043595;28;20699;-85
2022/11/21 07:00:09;;;;;;;1.87;1.00;;;5.20;99.90;;;;;;5045886;28;20684;-85
2022/11/21 07:02:36;;;;;;;1.60;1.13;;;5.50;99.90;;;;;;5040237;28;20718;-86
2022/11/21 07:05:03;;;;;;;1.80;1.30;;;5.20;99.90;;;;;;5041731;28;20664;-85
2022/11/21 07:07:30;;;;;;;2.77;2.43;;;5.10;99.90;;;;;;5045779;28;20649;-85
2022/11/21 07:09:56;;;;;;;2.43;2.23;;;5.40;99.90;;;;;;5045276;28;21208;-86
2022/11/21 07:15:10;;;;;;;2.07;1.97;;;5.10;99.90;;;;;;5036760;28;20697;-85
2022/11/21 07:17:38;;;;;;;2.30;2.07;;;5.10;99.90;;;;;;5039672;28;20623;-85
2022/11/21 07:20:06;;;;;;;3.30;3.00;;;4.80;99.90;;;;;;5046057;28;20657;-85
2022/11/21 07:22:33;;;;;;;5.10;4.03;;;5.10;99.90;;;;;;5048167;28;20651;-85
2022/11/21 07:25:00;;;;;;;5.90;4.77;;;5.10;99.90;;;;;;5047021;28;21025;-86
2022/11/21 07:27:26;;;;;;;3.17;2.97;;;4.90;99.90;;;;;;5043009;28;21086;-85
2022/11/21 07:29:56;;;;;;;4.37;2.90;;;4.90;99.90;;;;;;5043516;28;21649;-85
2022/11/21 07:32:24;;;;;;;2.63;2.17;;;4.90;99.90;;;;;;5047871;28;20629;-85
2022/11/21 07:34:51;;;;;;;3.80;3.50;;;4.60;99.90;;;;;;5046142;28;20618;-85
2022/11/21 07:37:17;;;;;;;2.93;2.43;;;4.60;99.90;;;;;;5048157;28;20988;-85
2022/11/21 07:39:44;;;;;;;2.67;2.47;;;5.10;99.90;;;;;;5048351;28;20649;-86
2022/11/21 07:42:12;;;;;;;5.47;1.60;;;5.20;99.90;;;;;;5047207;28;20648;-85
2022/11/21 07:44:39;;;;;;;2.50;1.77;;;5.40;99.90;;;;;;5042803;28;20661;-86
2022/11/21 07:47:06;;;;;;;2.03;1.60;;;5.30;99.90;;;;;;5046598;28;20671;-86
2022/11/21 07:49:34;;;;;;;1.30;1.20;;;5.00;99.90;;;;;;5047185;28;20645;-86
2022/11/21 07:52:01;;;;;;;1.70;1.47;;;5.30;99.90;;;;;;5047132;28;20629;-86
2022/11/21 07:54:28;;;;;;;4.73;1.40;;;5.40;99.90;;;;;;5046603;28;20622;-85
2022/11/21 07:56:55;;;;;;;1.67;1.13;;;5.20;99.90;;;;;;5047119;28;20626;-85
2022/11/21 07:59:22;;;;;;;4.33;1.37;;;5.30;99.90;;;;;;5047884;28;20645;-85
2022/11/21 08:01:51;;;;;;;2.83;1.63;;;5.50;99.90;;;;;;5047823;28;21226;-86
2022/11/21 08:04:17;;;;;;;2.30;0.90;;;5.40;99.90;;;;;;5047335;28;20622;-85
2022/11/21 08:06:46;;;;;;;1.93;0.90;;;5.20;99.90;;;;;;5047961;28;21024;-85
2022/11/21 08:09:12;;;;;;;1.27;1.17;;;5.40;99.90;;;;;;5045921;28;20658;-85
2022/11/21 08:11:39;;;;;;;2.93;1.43;;;4.80;99.90;;;;;;5042152;28;20626;-85
2022/11/21 08:14:06;;;;;;;3.13;2.17;;;5.20;99.90;;;;;;5046493;28;20633;-85
2022/11/21 08:16:33;;;;;;;1.20;1.10;;;5.30;99.90;;;;;;5047538;28;20629;-86
2022/11/21 08:19:01;;;;;;;3.50;2.23;;;5.30;99.90;;;;;;5046737;28;20617;-85
2022/11/21 08:21:28;;;;;;;3.60;1.93;;;5.80;99.90;;;;;;5048009;28;20788;-85
2022/11/21 08:23:58;;;;;;;2.33;1.20;;;5.80;99.90;;;;;;5047445;28;20626;-85
2022/11/21 08:26:25;;;;;;;2.50;1.60;;;6.00;99.90;;;;;;5045127;28;20665;-86
2022/11/21 08:28:52;;;;;;;2.93;1.40;;;5.50;99.90;;;;;;5045469;28;20623;-86
2022/11/21 08:31:18;;;;;;;2.40;2.20;;;6.30;99.90;;;;;;5045827;28;20633;-86
2022/11/21 08:33:45;;;;;;;6.27;2.37;;;6.20;99.90;;;;;;5047019;28;21293;-85
2022/11/21 08:36:12;;;;;;;4.70;1.70;;;5.80;99.90;;;;;;5047729;28;21200;-86
2022/11/21 08:38:39;;;;;;;3.47;1.70;;;5.50;99.90;;;;;;5047893;28;20630;-85
2022/11/21 08:43:51;;;;;;;1.50;1.40;;;6.00;99.90;;;;;;5044193;28;20619;-85
2022/11/21 08:46:17;;;;;;;1.83;1.47;;;6.20;99.90;;;;;;5046572;28;21017;-85
2022/11/21 08:48:44;;;;;;;2.33;1.23;;;6.00;99.90;;;;;;5046589;28;20626;-85
2022/11/21 08:51:11;;;;;;;2.17;1.47;;;6.40;99.90;;;;;;5045014;28;21209;-86
2022/11/21 08:53:38;;;;;;;3.50;1.53;;;6.50;99.90;;;;;;5047974;28;20633;-85
2022/11/21 08:56:09;;;;;;;2.03;1.60;;;6.50;99.90;;;;;;5047083;28;20997;-87
2022/11/21 08:58:35;;;;;;;3.83;2.10;;;6.50;99.90;;;;;;5049367;28;20629;-86
2022/11/21 09:01:02;;;;;;;4.00;2.37;;;6.50;99.90;;;;;;5045630;28;20649;-86
2022/11/21 09:03:29;;;;;;;2.87;1.60;;;7.00;99.90;;;;;;5045510;28;20631;-86
2022/11/21 09:05:56;;;;;;;5.30;1.93;;;7.10;99.90;;;;;;5046767;28;20668;-85
2022/11/21 09:08:23;;;;;;;2.73;1.60;;;7.60;99.90;;;;;;5047172;28;20660;-84
2022/11/21 09:10:50;;;;;;;5.50;1.53;;;8.10;99.90;;;;;;5045169;28;21065;-85
2022/11/21 09:13:19;;;;;;;1.87;1.60;;;8.10;99.90;;;;;;5045879;28;20637;-86
2022/11/21 09:18:30;;;;;;;2.50;1.93;;;9.20;41.00;;;;;;5046844;28;20648;-86
2022/11/21 09:20:59;;;;;;;7.70;2.20;;;9.70;1.00;;;;;;5046990;28;20647;-85
2022/11/21 09:23:26;;;;;;;6.23;2.00;;;8.80;12.80;;;;;;5042508;28;20652;-85
2022/11/21 09:25:53;;;;;;;2.03;1.47;;;8.80;12.00;;;;;;5046952;28;20670;-86
2022/11/21 09:28:21;;;;;;;4.07;2.00;;;9.60;1.00;;;;;;5038458;28;20630;-86
2022/11/21 09:30:48;;;;;;;3.03;1.27;;;9.10;1.00;;;;;;5046243;28;20656;-85
2022/11/21 09:33:16;;;;;;;5.10;1.80;;;9.40;1.00;;;;;;5036222;28;20737;-85
2022/11/21 09:35:43;;;;;;;2.67;1.70;;;10.20;1.00;;;;;;5041060;28;20680;-86
2022/11/21 09:38:10;;;;;;;2.07;1.20;;;10.10;1.00;;;;;;5046095;28;21215;-86
2022/11/21 09:40:41;;;;;;;4.50;1.67;;;10.30;99.90;;;;;;5045843;28;21254;-86
2022/11/21 09:43:29;;;;;;;4.47;1.47;;;10.00;1.00;;;;;;5040845;28;20645;-85
2022/11/21 09:46:03;;;;;;;2.17;1.30;;;10.90;1.00;;;;;;5037654;28;20661;-86
2022/11/21 09:48:34;;;;;;;3.30;1.60;;;11.00;1.00;;;;;;5043884;28;20721;-86
2022/11/21 09:51:06;;;;;;;3.30;1.50;;;10.30;1.00;;;;;;5045415;28;20650;-86
2022/11/21 09:53:35;;;;;;;3.67;1.27;;;10.60;99.90;;;;;;5045987;28;20657;-87
2022/11/21 09:56:06;;;;;;;2.10;1.30;;;12.10;99.90;;;;;;5038408;28;20626;-86
2022/11/21 09:58:39;;;;;;;3.60;1.20;;;12.60;1.00;;;;;;5046030;28;20632;-86
2022/11/21 10:01:10;;;;;;;2.20;1.27;;;12.20;99.90;;;;;;5033185;28;20646;-86
2022/11/21 10:03:42;;;;;;;3.13;1.07;;;12.60;1.00;;;;;;5039967;28;20631;-87
2022/11/21 10:06:17;;;;;;;3.83;1.13;;;13.50;99.90;;;;;;5042573;28;20667;-87
2022/11/21 10:08:54;;;;;;;1.93;1.17;;;12.60;99.90;;;;;;5038155;28;21250;-86
2022/11/21 10:11:31;;;;;;;5.00;1.40;;;11.60;1.00;;;;;;5034708;28;20646;-86
2022/11/21 10:14:11;;;;;;;4.43;1.83;;;10.80;1.00;;;;;;5041105;28;20629;-86
2022/11/21 10:16:46;;;;;;;2.73;1.30;;;12.30;1.00;;;;;;5029882;28;20658;-86
2022/11/21 10:19:33;;;;;;;2.53;1.20;;;14.50;1.00;;;;;;5043194;28;20625;-86
2022/11/21 10:22:36;;;;;;;1.90;1.13;;;15.40;99.90;;;;;;5029866;28;20625;-86
2022/11/21 10:25:12;;;;;;;2.73;1.50;;;13.50;1.00;;;;;;5030827;28;20660;-86
2022/11/21 10:27:46;;;;;;;2.77;1.20;;;12.50;99.90;;;;;;5046640;28;20625;-86
2022/11/21 10:30:18;;;;;;;5.07;1.60;;;14.10;1.00;;;;;;5040511;28;20652;-87
2022/11/21 10:32:47;;;;;;;4.03;2.03;;;13.50;1.00;;;;;;5034025;28;20627;-86
2022/11/21 10:35:17;;;;;;;2.57;1.00;;;12.00;1.00;;;;;;5034873;28;20660;-86
2022/11/21 10:37:49;;;;;;;2.80;1.43;;;13.00;1.00;;;;;;5035003;28;20630;-87
2022/11/21 10:40:32;;;;;;;2.20;1.07;;;15.30;99.90;;;;;;5029218;28;20693;-87
2022/11/21 10:45:15;;;;;;;4.97;2.20;;;16.60;99.90;;;;;;5042914;28;20647;-87
2022/11/21 10:45:51;;;;;;;2.40;1.30;;;14.50;99.90;;;;;;5025896;28;20754;-87
2022/11/21 10:48:18;;;;;;;4.43;1.60;;;14.40;99.90;;;;;;5023232;28;20688;-87
2022/11/21 10:50:59;;;;;;;4.37;1.13;;;15.30;99.90;;;;;;5032978;28;20650;-87
2022/11/21 10:56:14;;;;;;;1.67;1.20;;;14.40;99.90;;;;;;5038105;28;21340;-86
2022/11/21 10:58:43;;;;;;;2.17;1.40;;;13.70;99.90;;;;;;5038990;28;20623;-87
2022/11/21 11:01:25;;;;;;;4.67;1.30;;;14.60;99.90;;;;;;5035661;28;20630;-86
2022/11/21 11:04:16;;;;;;;1.33;0.90;;;14.90;99.90;;;;;;5037683;28;21282;-86
2022/11/21 11:06:44;;;;;;;2.60;1.03;;;15.40;99.90;;;;;;5037499;28;20792;-87
2022/11/21 11:09:32;;;;;;;3.83;1.13;;;16.00;99.90;;;;;;5031928;28;20642;-87
2022/11/21 11:12:23;;;;;;;3.70;1.30;;;17.90;99.90;;;;;;5041578;28;20999;-86
2022/11/21 11:14:52;;;;;;;3.87;1.77;;;17.40;99.90;;;;;;5038258;28;20636;-88
2022/11/21 11:17:29;;;;;;;2.93;1.40;;;17.00;99.90;;;;;;5042048;28;20665;-88
2022/11/21 11:20:06;;;;;;;1.80;1.00;;;18.00;99.90;;;;;;5037479;28;20936;-87
2022/11/21 11:22:33;;;;;;;1.77;1.30;;;16.90;99.90;;;;;;5037616;28;20879;-88
2022/11/21 11:25:04;;;;;;;2.87;1.77;;;15.90;99.90;;;;;;5045383;28;20677;-87
2022/11/21 11:27:31;;;;;;;2.50;1.10;;;15.00;99.90;;;;;;5040869;28;20715;-87
2022/11/21 11:30:06;;;;;;;2.60;1.20;;;13.70;99.90;;;;;;5037311;28;20625;-87
2022/11/21 11:32:39;;;;;;;2.50;2.03;;;14.30;99.90;;;;;;5035978;28;20653;-87
2022/11/21 11:35:20;;;;;;;1.67;1.30;;;14.20;99.90;;;;;;5036254;28;20618;-87
2022/11/21 11:37:57;;;;;;;2.43;1.20;;;14.80;99.90;;;;;;5037891;28;20674;-87
2022/11/21 11:40:31;;;;;;;2.97;1.30;;;15.00;99.90;;;;;;5037056;28;20630;-87
2022/11/21 11:49:04;;;;;;;6.07;1.00;;;12.40;99.90;;;;;;5038527;28;20599;-86
2022/11/21 11:51:37;;;;;;;2.77;1.10;;;11.50;1.00;;;;;;5027921;28;20618;-86
2022/11/21 11:54:12;;;;;;;2.47;1.30;;;11.90;1.00;;;;;;5045457;28;20630;-86
2022/11/21 11:56:39;;;;;;;6.07;1.20;;;11.70;1.00;;;;;;5045185;28;21024;-86
2022/11/21 11:59:16;;;;;;;3.67;1.40;;;11.60;1.00;;;;;;5038447;28;20629;-86
2022/11/21 12:01:48;;;;;;;3.53;2.03;;;12.80;99.90;;;;;;5036741;28;20611;-86
2022/11/21 12:04:17;;;;;;;1.20;0.97;;;12.50;99.90;;;;;;5037225;28;20637;-86
2022/11/21 12:06:52;;;;;;;2.17;1.47;;;11.90;99.90;;;;;;5043755;28;21164;-86
2022/11/21 12:09:28;;;;;;;3.10;1.27;;;11.60;1.00;;;;;;5038129;28;20609;-86
2022/11/21 12:12:08;;;;;;;2.07;1.10;;;11.70;1.00;;;;;;5039722;28;20624;-85
2022/11/21 12:17:52;;;;;;;3.60;1.03;;;11.10;1.00;;;;;;5036019;28;20634;-86
2022/11/21 12:20:23;;;;;;;2.23;1.10;;;11.50;1.00;;;;;;5040150;28;20720;-85
2022/11/21 12:22:52;;;;;;;1.97;1.23;;;11.70;1.00;;;;;;5038234;28;21181;-87
2022/11/21 12:25:27;;;;;;;3.03;1.20;;;13.40;99.90;;;;;;5043495;28;20640;-86
2022/11/21 12:27:55;;;;;;;1.87;1.20;;;12.90;99.90;;;;;;5037671;28;20649;-86
2022/11/21 12:30:49;;;;;;;2.97;1.27;;;13.10;99.90;;;;;;5047345;28;20626;-86
2022/11/21 12:33:21;;;;;;;2.43;1.00;;;12.90;99.90;;;;;;5043138;28;20610;-86
2022/11/21 12:36:23;;;;;;;4.17;1.70;;;12.00;99.90;;;;;;5037326;28;20767;-86
2022/11/21 12:39:03;;;;;;;4.60;2.10;;;11.60;99.90;;;;;;5039281;28;20684;-86
2022/11/21 12:44:36;;;;;;;4.93;1.83;;;10.80;1.00;;;;;;5040824;28;20569;-87
2022/11/21 12:47:19;;;;;;;3.60;1.90;;;10.40;44.60;;;;;;5041450;28;20670;-86
2022/11/21 12:55:36;;;;;;;5.00;1.20;;;12.40;1.00;;;;;;5047727;28;20578;-86
2022/11/21 12:58:23;;;;;;;3.00;1.20;;;13.60;99.90;;;;;;5038588;28;21031;-86
2022/11/21 13:01:02;;;;;;;3.50;1.30;;;15.20;99.90;;;;;;5027189;28;21181;-87
2022/11/21 13:03:39;;;;;;;3.20;1.70;;;15.10;99.90;;;;;;5033642;28;20629;-87
2022/11/21 13:06:12;;;;;;;3.40;1.17;;;15.00;99.90;;;;;;5035465;28;21586;-87
2022/11/21 13:08:41;;;;;;;2.10;1.30;;;15.70;99.90;;;;;;5042705;28;20642;-87
2022/11/21 13:14:07;;;;;;;4.27;2.57;;;17.20;99.90;;;;;;5042443;28;20725;-88
2022/11/21 13:16:43;;;;;;;5.70;1.20;;;17.60;90.80;;;;;;5030522;28;20628;-88
2022/11/21 13:19:21;;;;;;;3.30;1.57;;;17.20;92.10;;;;;;5046099;28;21294;-88
2022/11/21 13:21:51;;;;;;;3.20;1.20;;;16.50;79.30;;;;;;5045048;28;20641;-88
2022/11/21 13:24:56;;;;;;;3.43;1.20;;;17.00;78.20;;;;;;5049002;28;20664;-88
2022/11/21 13:27:30;;;;;;;2.27;0.90;;;17.00;67.30;;;;;;5042010;28;20659;-87
2022/11/21 13:30:20;;;;;;;2.60;1.60;;;16.50;68.00;;;;;;5031564;28;21232;-87
2022/11/21 13:32:49;;;;;;;2.07;1.30;;;15.80;81.20;;;;;;5046213;28;20714;-87
2022/11/21 13:35:59;;;;;;;2.53;1.50;;;15.50;91.90;;;;;;5042799;28;20972;-85
2022/11/21 13:38:26;;;;;;;1.67;1.03;;;16.20;92.60;;;;;;5030954;28;20637;-87
2022/11/21 13:43:39;;;;;;;2.00;1.17;;;18.00;31.00;;;;;;5046343;28;21043;-87
2022/11/21 13:46:06;;;;;;;2.33;0.80;;;15.10;47.50;;;;;;5038540;28;20787;-87
2022/11/21 13:48:59;;;;;;;2.40;1.37;;;13.60;99.90;;;;;;5039049;28;20625;-87
2022/11/21 13:51:50;;;;;;;4.50;1.40;;;12.60;99.90;;;;;;5043415;28;20634;-88
2022/11/21 13:54:49;;;;;;;3.43;1.50;;;12.30;99.90;;;;;;5038072;28;20614;-86